createdAt,value
2024-02-13T00:00:40.143Z,13.02
2024-02-13T00:03:07.033Z,17.75
2024-02-13T00:05:34.422Z,18.85
2024-02-13T00:08:01.936Z,16.75
2024-02-13T00:10:29.564Z,32.72
2024-02-13T00:12:56.111Z,11.18
2024-02-13T00:15:22.744Z,15.57
2024-02-13T00:17:49.526Z,21.33
2024-02-13T00:20:16.368Z,16.40
2024-02-13T00:22:42.967Z,24.00
2024-02-13T00:25:10.383Z,15.27
2024-02-13T00:27:37.616Z,21.13
2024-02-13T00:30:04.601Z,18.05
2024-02-13T00:32:38.634Z,22.50
2024-02-13T00:35:09.599Z,28.38
2024-02-13T00:37:37.663Z,13.02
2024-02-13T00:40:11.152Z,21.48
2024-02-13T00:42:37.978Z,20.02
2024-02-13T00:45:08.491Z,13.52
2024-02-13T00:50:03.189Z,19.50
2024-02-13T00:52:29.810Z,13.93
2024-02-13T00:54:58.054Z,21.35
2024-02-13T00:57:25.501Z,13.43
2024-02-13T00:59:52.443Z,17.15
2024-02-13T01:02:19.128Z,22.88
2024-02-13T01:04:45.868Z,27.85
2024-02-13T01:07:12.426Z,19.90
2024-02-13T01:09:38.909Z,15.63
2024-02-13T01:12:05.539Z,14.32
2024-02-13T01:14:32.417Z,17.83
2024-02-13T01:16:59.079Z,20.70
2024-02-13T01:19:25.678Z,19.58
2024-02-13T01:21:52.200Z,14.18
2024-02-13T01:24:18.678Z,20.92
2024-02-13T01:26:45.851Z,22.50
2024-02-13T01:29:15.703Z,22.42
2024-02-13T01:31:42.802Z,24.52
2024-02-13T01:34:09.454Z,26.95
2024-02-13T01:36:38.855Z,18.77
2024-02-13T01:39:05.704Z,20.50
2024-02-13T01:41:32.263Z,14.75
2024-02-13T01:43:58.922Z,25.85
2024-02-13T01:46:27.739Z,18.75
2024-02-13T01:49:00.354Z,29.85
2024-02-13T01:51:35.236Z,19.10
2024-02-13T01:54:04.656Z,12.20
2024-02-13T01:56:34.654Z,31.58
2024-02-13T01:59:02.926Z,22.67
2024-02-13T02:01:30.785Z,26.23
2024-02-13T02:04:01.296Z,20.00
2024-02-13T02:08:54.715Z,21.60
2024-02-13T02:11:21.429Z,25.58
2024-02-13T02:13:48.427Z,18.55
2024-02-13T02:16:14.915Z,21.13
2024-02-13T02:18:42.245Z,20.17
2024-02-13T02:21:09.159Z,22.38
2024-02-13T02:23:35.944Z,18.60
2024-02-13T02:26:04.226Z,23.60
2024-02-13T02:28:31.075Z,29.52
2024-02-13T02:30:57.540Z,18.67
2024-02-13T02:33:24.144Z,21.80
2024-02-13T02:35:50.873Z,22.45
2024-02-13T02:38:17.845Z,19.88
2024-02-13T02:40:46.963Z,27.15
2024-02-13T02:43:13.492Z,26.48
2024-02-13T02:45:40.136Z,17.55
2024-02-13T02:48:07.474Z,19.85
2024-02-13T02:50:35.835Z,16.52
2024-02-13T02:53:02.437Z,21.52
2024-02-13T02:55:30.368Z,13.23
2024-02-13T02:57:57.804Z,16.58
2024-02-13T03:00:24.351Z,14.18
2024-02-13T03:02:50.941Z,13.48
2024-02-13T03:05:17.754Z,24.90
2024-02-13T03:07:46.794Z,11.65
2024-02-13T03:10:13.433Z,12.50
2024-02-13T03:12:40.163Z,17.88
2024-02-13T03:15:07.291Z,10.02
2024-02-13T03:17:34.097Z,8.90
2024-02-13T03:20:02.096Z,17.33
2024-02-13T03:22:29.272Z,15.90
2024-02-13T03:24:56.022Z,7.25
2024-02-13T03:27:22.534Z,13.77
2024-02-13T03:29:49.121Z,13.45
2024-02-13T03:32:15.759Z,11.40
2024-02-13T03:34:42.255Z,15.95
2024-02-13T03:37:09.770Z,10.07
2024-02-13T03:39:36.937Z,15.88
2024-02-13T03:42:03.712Z,15.10
2024-02-13T03:44:30.323Z,6.53
2024-02-13T03:46:56.864Z,17.63
2024-02-13T03:49:23.518Z,11.52
2024-02-13T03:51:50.441Z,16.92
2024-02-13T03:54:16.952Z,8.93
2024-02-13T03:56:43.693Z,13.20
2024-02-13T03:59:12.067Z,15.85
2024-02-13T04:01:40.106Z,13.20
2024-02-13T04:04:06.691Z,10.77
2024-02-13T04:06:34.466Z,16.95
2024-02-13T04:09:04.554Z,16.58
2024-02-13T04:11:31.619Z,11.23
2024-02-13T04:13:58.686Z,15.52
2024-02-13T04:16:25.296Z,10.70
2024-02-13T04:18:54.432Z,6.47
2024-02-13T04:21:21.290Z,15.38
2024-02-13T04:23:49.701Z,12.90
2024-02-13T04:26:25.982Z,9.20
2024-02-13T04:29:02.615Z,12.45
2024-02-13T04:31:29.099Z,8.18
2024-02-13T04:33:55.756Z,14.35
2024-02-13T04:36:22.360Z,8.32
2024-02-13T04:38:49.016Z,6.35
2024-02-13T04:41:17.796Z,7.88
2024-02-13T04:43:44.801Z,12.35
2024-02-13T04:46:11.333Z,19.80
2024-02-13T04:48:38.565Z,13.75
2024-02-13T04:51:08.711Z,15.65
2024-02-13T04:53:35.347Z,17.27
2024-02-13T04:56:01.926Z,20.60
2024-02-13T04:58:32.921Z,19.70
2024-02-13T05:01:10.701Z,17.02
2024-02-13T05:03:49.450Z,12.73
2024-02-13T05:06:35.400Z,19.55
2024-02-13T05:09:01.949Z,13.63
2024-02-13T05:11:28.555Z,16.60
2024-02-13T05:13:57.556Z,10.35
2024-02-13T05:16:26.860Z,10.68
2024-02-13T05:18:53.819Z,15.18
2024-02-13T05:21:21.965Z,16.02
2024-02-13T05:23:49.205Z,14.88
2024-02-13T05:26:16.397Z,18.63
2024-02-13T05:28:43.674Z,17.15
2024-02-13T05:31:10.243Z,10.23
2024-02-13T05:33:37.543Z,14.65
2024-02-13T05:36:05.300Z,16.30
2024-02-13T05:38:36.691Z,13.18
2024-02-13T05:41:03.674Z,16.63
2024-02-13T05:43:30.163Z,18.60
2024-02-13T05:45:57.977Z,17.45
2024-02-13T05:48:25.948Z,20.45
2024-02-13T05:50:52.604Z,19.20
2024-02-13T05:53:19.333Z,27.10
2024-02-13T05:55:45.922Z,23.10
2024-02-13T05:58:12.645Z,32.85
2024-02-13T06:00:39.201Z,31.58
2024-02-13T06:03:07.926Z,25.77
2024-02-13T06:05:35.082Z,31.65
2024-02-13T06:08:01.761Z,29.77
2024-02-13T06:10:28.322Z,22.77
2024-02-13T06:12:57.898Z,30.13
2024-02-13T06:15:24.618Z,24.08
2024-02-13T06:17:51.268Z,25.02
2024-02-13T06:20:19.285Z,31.83
2024-02-13T06:22:45.983Z,25.65
2024-02-13T06:25:13.885Z,27.98
2024-02-13T06:27:40.787Z,24.35
2024-02-13T06:30:08.339Z,30.45
2024-02-13T06:32:35.343Z,21.77
2024-02-13T06:35:01.914Z,20.55
2024-02-13T06:37:28.423Z,30.58
2024-02-13T06:39:54.994Z,29.42
2024-02-13T06:42:21.514Z,30.30
2024-02-13T06:44:48.714Z,22.80
2024-02-13T06:47:15.507Z,24.98
2024-02-13T06:49:42.161Z,29.67
2024-02-13T06:52:10.125Z,29.75
2024-02-13T06:54:36.605Z,22.63
2024-02-13T06:57:03.190Z,30.65
2024-02-13T06:59:31.057Z,25.38
2024-02-13T07:01:57.807Z,26.10
2024-02-13T07:04:24.552Z,21.00
2024-02-13T07:07:07.928Z,24.08
2024-02-13T07:09:41.048Z,23.13
2024-02-13T07:12:07.671Z,31.45
2024-02-13T07:14:34.326Z,29.23
2024-02-13T07:17:00.898Z,19.73
2024-02-13T07:19:27.647Z,22.67
2024-02-13T07:21:54.210Z,23.95
2024-02-13T07:24:20.764Z,28.00
2024-02-13T07:26:47.493Z,24.02
2024-02-13T07:29:14.081Z,28.60
2024-02-13T07:31:40.623Z,30.33
2024-02-13T07:34:07.254Z,19.02
2024-02-13T07:36:33.832Z,19.20
2024-02-13T07:39:01.546Z,24.67
2024-02-13T07:41:29.504Z,23.00
2024-02-13T07:43:56.166Z,26.02
2024-02-13T07:46:22.719Z,24.63
2024-02-13T07:48:49.728Z,21.52
2024-02-13T07:51:17.409Z,19.80
2024-02-13T07:53:44.056Z,18.30
2024-02-13T07:56:12.107Z,20.85
2024-02-13T07:58:39.750Z,23.88
2024-02-13T08:01:07.072Z,15.57
2024-02-13T08:03:35.590Z,21.08
2024-02-13T08:06:02.600Z,19.45
2024-02-13T08:08:29.884Z,20.05
2024-02-13T08:10:57.165Z,21.08
2024-02-13T08:13:23.676Z,23.20
2024-02-13T08:15:50.160Z,24.42
2024-02-13T08:18:19.198Z,16.23
2024-02-13T08:20:46.289Z,26.10
2024-02-13T08:23:13.142Z,19.55
2024-02-13T08:25:39.869Z,25.95
2024-02-13T08:28:07.092Z,24.80
2024-02-13T08:30:33.625Z,18.20
2024-02-13T08:33:00.484Z,20.20
2024-02-13T08:35:27.310Z,20.83
2024-02-13T08:37:56.065Z,26.80
2024-02-13T08:40:24.092Z,19.70
2024-02-13T08:42:50.652Z,19.65
2024-02-13T08:45:17.179Z,22.15
2024-02-13T08:47:43.813Z,19.20
2024-02-13T08:50:13.998Z,18.17
2024-02-13T08:52:40.657Z,23.98
2024-02-13T08:55:08.574Z,24.95
2024-02-13T08:57:35.126Z,17.63
2024-02-13T09:00:01.926Z,16.55
2024-02-13T09:02:28.444Z,18.70
2024-02-13T09:04:55.068Z,28.23
2024-02-13T09:07:21.602Z,19.65
2024-02-13T09:09:48.444Z,15.52
2024-02-13T09:12:14.925Z,14.43
2024-02-13T09:14:41.440Z,18.92
2024-02-13T09:17:09.188Z,20.85
2024-02-13T09:19:35.687Z,19.35
2024-02-13T09:22:02.156Z,21.10
2024-02-13T09:24:28.760Z,18.33
2024-02-13T09:26:55.460Z,21.67
2024-02-13T09:29:22.041Z,26.17
2024-02-13T09:31:48.695Z,22.05
2024-02-13T09:34:15.496Z,16.65
2024-02-13T09:36:42.564Z,17.85
2024-02-13T09:39:10.164Z,15.98
2024-02-13T09:41:38.039Z,21.77
2024-02-13T09:44:05.053Z,17.48
2024-02-13T09:46:32.720Z,22.45
2024-02-13T09:49:13.718Z,15.13
2024-02-13T09:51:41.806Z,18.17
2024-02-13T09:54:09.995Z,20.33
2024-02-13T09:56:39.679Z,16.58
2024-02-13T09:59:08.331Z,21.57
2024-02-13T10:01:36.274Z,22.05
2024-02-13T10:04:04.899Z,15.25
2024-02-13T10:06:31.592Z,22.88
2024-02-13T10:09:00.176Z,17.58
2024-02-13T10:11:32.033Z,15.45
2024-02-13T10:13:58.608Z,19.85
2024-02-13T10:16:28.732Z,19.90
2024-02-13T10:18:58.637Z,15.65
2024-02-13T10:21:26.976Z,19.00
2024-02-13T10:24:14.810Z,19.63
2024-02-13T10:26:41.698Z,18.52
2024-02-13T10:29:08.938Z,23.00
2024-02-13T10:31:36.599Z,18.70
2024-02-13T10:34:08.447Z,20.45
2024-02-13T10:36:42.482Z,25.80
2024-02-13T10:39:13.207Z,16.60
2024-02-13T10:41:41.872Z,18.40
2024-02-13T10:44:13.073Z,28.33
2024-02-13T10:46:40.750Z,23.08
2024-02-13T10:49:21.611Z,25.20
2024-02-13T10:51:50.279Z,23.08
2024-02-13T10:54:17.172Z,20.85
2024-02-13T10:56:45.464Z,30.30
2024-02-13T10:59:13.174Z,22.67
2024-02-13T11:01:42.699Z,21.77
2024-02-13T11:04:10.763Z,26.30
2024-02-13T11:06:37.553Z,23.63
2024-02-13T11:09:13.325Z,20.13
2024-02-13T11:14:22.889Z,22.40
2024-02-13T11:17:00.308Z,27.38
2024-02-13T11:19:41.267Z,29.23
2024-02-13T11:22:10.415Z,22.55
2024-02-13T11:24:50.728Z,24.45
2024-02-13T11:30:01.031Z,23.02
2024-02-13T11:32:33.323Z,20.08
2024-02-13T11:35:00.935Z,21.48
2024-02-13T11:37:31.554Z,23.30
2024-02-13T11:42:33.721Z,31.80
2024-02-13T11:45:09.603Z,23.92
2024-02-13T11:47:36.496Z,20.45
2024-02-13T11:50:08.393Z,20.17
2024-02-13T11:52:35.773Z,19.40
2024-02-13T11:55:02.470Z,22.25
2024-02-13T11:57:29.341Z,21.60
2024-02-13T12:00:06.489Z,19.70
2024-02-13T12:02:34.640Z,25.63
2024-02-13T12:05:01.492Z,19.67
2024-02-13T12:07:29.109Z,20.75
2024-02-13T12:09:56.084Z,23.52
2024-02-13T12:12:22.911Z,19.95
2024-02-13T12:14:53.789Z,20.58
2024-02-13T12:17:22.094Z,21.35
2024-02-13T12:19:49.159Z,28.17
2024-02-13T12:22:17.884Z,22.38
2024-02-13T12:24:48.691Z,25.55
2024-02-13T12:27:17.050Z,21.55
2024-02-13T12:29:44.578Z,24.35
2024-02-13T12:32:18.939Z,22.17
2024-02-13T12:34:49.934Z,27.75
2024-02-13T12:37:21.466Z,19.50
2024-02-13T12:39:48.800Z,21.60
2024-02-13T12:42:18.626Z,24.73
2024-02-13T12:44:45.628Z,24.63
2024-02-13T12:47:14.815Z,29.73
2024-02-13T12:49:44.593Z,29.70
2024-02-13T12:52:23.546Z,26.23
2024-02-13T12:54:51.163Z,26.90
2024-02-13T12:57:19.653Z,25.35
2024-02-13T12:59:46.163Z,25.80
2024-02-13T13:02:14.999Z,29.45
2024-02-13T13:04:42.178Z,30.15
2024-02-13T13:07:08.920Z,33.50
2024-02-13T13:09:37.306Z,30.90
2024-02-13T13:12:06.834Z,31.85
2024-02-13T13:14:35.650Z,34.65
2024-02-13T13:17:02.221Z,32.72
2024-02-13T13:19:30.570Z,36.28
2024-02-13T13:21:57.448Z,31.08
2024-02-13T13:24:24.273Z,36.13
2024-02-13T13:26:51.788Z,29.27
2024-02-13T13:29:18.885Z,32.45
2024-02-13T13:31:48.714Z,36.17
2024-02-13T13:34:21.303Z,35.90
2024-02-13T13:36:48.679Z,33.00
2024-02-13T13:39:15.254Z,32.72
2024-02-13T13:41:42.560Z,34.80
2024-02-13T13:44:14.482Z,35.00
2024-02-13T13:46:42.196Z,28.63
2024-02-13T13:49:09.023Z,33.47
2024-02-13T13:51:35.703Z,35.05
2024-02-13T13:54:02.450Z,33.28
2024-02-13T13:56:29.134Z,32.40
2024-02-13T13:58:55.633Z,46.30
2024-02-13T14:01:22.712Z,38.80
2024-02-13T14:03:49.648Z,33.03
2024-02-13T14:06:16.656Z,31.33
2024-02-13T14:08:43.408Z,50.50
2024-02-13T14:11:11.185Z,39.83
2024-02-13T14:13:37.834Z,29.20
2024-02-13T14:16:04.803Z,27.50
2024-02-13T14:18:31.928Z,32.33
2024-02-13T14:20:58.870Z,36.15
2024-02-13T14:23:25.561Z,28.90
2024-02-13T14:25:52.284Z,29.85
2024-02-13T14:28:19.499Z,33.13
2024-02-13T14:30:47.307Z,30.98
2024-02-13T14:33:14.542Z,38.35
2024-02-13T14:35:43.332Z,30.10
2024-02-13T14:38:09.944Z,33.92
2024-02-13T14:40:40.732Z,30.92
2024-02-13T14:43:08.636Z,33.38
2024-02-13T14:45:40.061Z,36.33
2024-02-13T14:48:10.461Z,32.92
2024-02-13T14:50:39.484Z,34.92
2024-02-13T14:53:07.981Z,35.75
2024-02-13T14:55:35.101Z,33.30
2024-02-13T15:00:32.379Z,32.58
2024-02-13T15:03:01.153Z,36.13
2024-02-13T15:05:28.215Z,47.75
2024-02-13T15:07:55.207Z,37.13
2024-02-13T15:10:21.779Z,34.03
2024-02-13T15:12:48.488Z,38.10
2024-02-13T15:15:18.631Z,34.20
2024-02-13T15:17:47.132Z,36.30
2024-02-13T15:20:15.811Z,34.78
2024-02-13T15:22:42.866Z,29.88
2024-02-13T15:25:10.287Z,35.40
2024-02-13T15:27:39.328Z,42.55
2024-02-13T15:30:09.418Z,32.90
2024-02-13T15:32:36.055Z,41.67
2024-02-13T15:35:06.505Z,46.25
2024-02-13T15:40:37.064Z,33.78
2024-02-13T15:43:29.936Z,36.40
2024-02-13T15:46:14.662Z,36.47
2024-02-13T15:48:43.665Z,37.90
2024-02-13T15:51:10.541Z,32.30
2024-02-13T15:53:38.472Z,45.35
2024-02-13T15:56:06.989Z,39.10
2024-02-13T15:58:33.485Z,33.85
2024-02-13T16:01:00.728Z,33.25
2024-02-13T16:03:27.801Z,35.53
2024-02-13T16:05:56.258Z,34.67
2024-02-13T16:08:25.300Z,38.63
2024-02-13T16:10:52.502Z,37.92
2024-02-13T16:13:20.093Z,49.08
2024-02-13T16:15:47.871Z,44.38
2024-02-13T16:18:14.719Z,38.80
2024-02-13T16:20:41.634Z,40.05
2024-02-13T16:23:08.349Z,28.85
2024-02-13T16:25:35.919Z,42.30
2024-02-13T16:28:06.244Z,32.90
2024-02-13T16:30:34.584Z,32.30
2024-02-13T16:33:02.271Z,39.30
2024-02-13T16:35:29.246Z,36.08
2024-02-13T16:37:55.917Z,33.75
2024-02-13T16:40:22.922Z,34.40
2024-02-13T16:42:56.161Z,21.83
2024-02-13T16:45:25.300Z,18.25
2024-02-13T16:47:53.342Z,23.77
2024-02-13T16:50:20.183Z,21.33
2024-02-13T16:52:47.583Z,14.50
2024-02-13T16:55:14.888Z,21.38
2024-02-13T16:57:42.326Z,21.60
2024-02-13T17:00:11.735Z,14.65
2024-02-13T17:02:40.186Z,17.63
2024-02-13T17:05:12.451Z,18.75
2024-02-13T17:07:43.229Z,20.67
2024-02-13T17:10:18.961Z,22.85
2024-02-13T17:12:45.501Z,29.80
2024-02-13T17:15:14.057Z,26.35
2024-02-13T17:17:42.223Z,26.65
2024-02-13T17:20:12.850Z,29.65
2024-02-13T17:22:42.901Z,23.38
2024-02-13T17:25:11.133Z,33.00
2024-02-13T17:27:42.474Z,32.75
2024-02-13T17:30:13.850Z,27.48
2024-02-13T17:32:43.056Z,29.50
2024-02-13T17:35:10.098Z,33.28
2024-02-13T17:37:37.287Z,32.65
2024-02-13T17:40:05.421Z,27.95
2024-02-13T17:42:34.226Z,31.10
2024-02-13T17:45:00.827Z,41.63
2024-02-13T17:47:27.419Z,37.10
2024-02-13T17:49:54.417Z,28.52
2024-02-13T17:52:21.009Z,30.75
2024-02-13T17:54:47.557Z,28.15
2024-02-13T17:57:14.081Z,32.78
2024-02-13T17:59:40.602Z,25.88
2024-02-13T18:02:08.634Z,32.40
2024-02-13T18:04:36.275Z,30.20
2024-02-13T18:07:03.114Z,27.80
2024-02-13T18:09:29.635Z,23.10
2024-02-13T18:11:59.788Z,30.83
2024-02-13T18:14:28.476Z,30.67
2024-02-13T18:16:55.172Z,25.77
2024-02-13T18:19:22.308Z,26.52
2024-02-13T18:21:52.136Z,28.08
2024-02-13T18:24:18.929Z,34.30
2024-02-13T18:26:46.883Z,30.83
2024-02-13T18:29:13.539Z,21.73
2024-02-13T18:31:40.152Z,27.83
2024-02-13T18:34:06.923Z,23.50
2024-02-13T18:36:33.610Z,23.90
2024-02-13T18:39:00.252Z,23.10
2024-02-13T18:41:27.215Z,24.52
2024-02-13T18:43:53.783Z,24.65
2024-02-13T18:46:20.591Z,22.98
2024-02-13T18:48:47.516Z,25.65
2024-02-13T18:51:17.576Z,25.73
2024-02-13T18:53:44.145Z,25.35
2024-02-13T18:56:10.649Z,26.48
2024-02-13T18:58:39.641Z,31.58
2024-02-13T19:01:06.382Z,29.80
2024-02-13T19:03:32.959Z,23.83
2024-02-13T19:06:04.594Z,22.55
2024-02-13T19:08:32.637Z,29.13
2024-02-13T19:10:59.715Z,21.52
2024-02-13T19:13:29.671Z,29.23
2024-02-13T19:15:56.199Z,27.73
2024-02-13T19:18:22.842Z,26.90
2024-02-13T19:20:52.919Z,25.52
2024-02-13T19:23:22.826Z,31.85
2024-02-13T19:25:49.720Z,24.15
2024-02-13T19:28:17.925Z,24.73
2024-02-13T19:30:46.867Z,29.33
2024-02-13T19:33:14.511Z,25.58
2024-02-13T19:35:41.830Z,33.90
2024-02-13T19:38:10.846Z,33.75
2024-02-13T19:40:39.411Z,21.75
2024-02-13T19:43:05.898Z,25.27
2024-02-13T19:45:32.560Z,20.95
2024-02-13T19:47:59.142Z,22.48
2024-02-13T19:50:25.669Z,19.85
2024-02-13T19:52:52.177Z,21.50
2024-02-13T19:55:20.008Z,23.85
2024-02-13T19:57:46.554Z,24.70
2024-02-13T20:00:14.082Z,17.60
2024-02-13T20:02:40.682Z,20.23
2024-02-13T20:05:07.462Z,16.80
2024-02-13T20:07:38.490Z,21.23
2024-02-13T20:10:06.812Z,22.38
2024-02-13T20:12:33.458Z,22.70
2024-02-13T20:15:00.467Z,18.83
2024-02-13T20:17:27.628Z,15.85
2024-02-13T20:19:54.218Z,18.10
2024-02-13T20:22:20.732Z,22.58
2024-02-13T20:24:48.578Z,17.13
2024-02-13T20:27:15.153Z,17.38
2024-02-13T20:29:43.752Z,23.33
2024-02-13T20:32:10.632Z,19.85
2024-02-13T20:34:38.352Z,24.50
2024-02-13T20:37:05.122Z,17.00
2024-02-13T20:39:31.749Z,19.67
2024-02-13T20:41:59.897Z,19.55
2024-02-13T20:44:27.977Z,22.25
2024-02-13T20:46:55.072Z,22.45
2024-02-13T20:49:23.856Z,20.88
2024-02-13T20:51:50.407Z,17.60
2024-02-13T20:54:17.129Z,20.10
2024-02-13T20:56:49.845Z,20.88
2024-02-13T20:59:18.665Z,16.38
2024-02-13T21:01:48.588Z,21.02
2024-02-13T21:04:15.236Z,19.95
2024-02-13T21:06:44.773Z,18.77
2024-02-13T21:09:13.154Z,22.52
2024-02-13T21:11:40.853Z,17.98
2024-02-13T21:14:07.771Z,16.20
2024-02-13T21:16:34.499Z,21.50
2024-02-13T21:19:02.078Z,21.25
2024-02-13T21:21:47.494Z,17.67
2024-02-13T21:24:14.305Z,16.88
2024-02-13T21:26:41.298Z,26.70
2024-02-13T21:29:08.539Z,18.58
2024-02-13T21:31:35.607Z,26.00
2024-02-13T21:34:06.862Z,20.17
2024-02-13T21:36:35.876Z,20.08
2024-02-13T21:39:08.451Z,18.73
2024-02-13T21:41:36.129Z,20.35
2024-02-13T21:44:12.875Z,21.40
2024-02-13T21:46:39.405Z,24.80
2024-02-13T21:49:07.766Z,20.08
2024-02-13T21:51:34.413Z,25.45
2024-02-13T21:54:01.872Z,15.27
2024-02-13T21:56:28.611Z,18.00
2024-02-13T21:58:56.274Z,22.98
2024-02-13T22:01:22.854Z,20.83
2024-02-13T22:03:49.734Z,19.40
2024-02-13T22:06:16.291Z,18.77
2024-02-13T22:08:44.160Z,13.32
2024-02-13T22:11:10.824Z,16.65
2024-02-13T22:13:37.484Z,17.00
2024-02-13T22:16:05.204Z,15.43
2024-02-13T22:18:31.831Z,18.38
2024-02-13T22:20:58.757Z,14.65
2024-02-13T22:23:25.842Z,16.88
2024-02-13T22:25:52.756Z,16.05
2024-02-13T22:28:19.238Z,26.67
2024-02-13T22:30:47.157Z,16.30
2024-02-13T22:33:14.238Z,11.85
2024-02-13T22:35:41.868Z,18.58
2024-02-13T22:38:08.687Z,16.65
2024-02-13T22:40:35.279Z,15.60
2024-02-13T22:43:03.206Z,21.08
2024-02-13T22:45:29.807Z,10.05
2024-02-13T22:48:02.059Z,14.82
2024-02-13T22:50:29.726Z,14.32
2024-02-13T22:52:59.968Z,11.82
2024-02-13T22:55:30.497Z,14.65
2024-02-13T23:00:43.996Z,14.77
2024-02-13T23:03:10.959Z,14.05
2024-02-13T23:05:38.776Z,17.48
2024-02-13T23:08:06.949Z,11.88
2024-02-13T23:10:33.951Z,15.77
2024-02-13T23:13:00.527Z,15.88
2024-02-13T23:15:27.139Z,16.15
2024-02-13T23:17:53.844Z,11.80
2024-02-13T23:20:22.560Z,14.05
2024-02-13T23:22:53.077Z,21.13
2024-02-13T23:25:21.137Z,17.20
2024-02-13T23:27:48.455Z,14.10
2024-02-13T23:30:15.758Z,17.02
2024-02-13T23:32:42.939Z,15.32
2024-02-13T23:35:09.864Z,14.32
2024-02-13T23:37:36.394Z,17.95
2024-02-13T23:40:12.881Z,13.10
2024-02-13T23:42:39.973Z,16.38
2024-02-13T23:45:08.120Z,14.35
2024-02-13T23:47:34.743Z,14.57
2024-02-13T23:50:01.757Z,14.38
2024-02-13T23:52:28.417Z,18.15
2024-02-13T23:54:55.205Z,12.88
2024-02-13T23:57:21.795Z,18.27
2024-02-13T23:59:48.533Z,14.65
